createdAt,value
2022-10-05T10:58:22.342Z,20.8
2022-10-05T11:04:01.354Z,20.8
2022-10-05T11:09:41.608Z,20.7
2022-10-05T11:15:22.121Z,20.8
2022-10-05T11:21:25.567Z,20.8
2022-10-05T11:27:03.693Z,20.8
2022-10-05T11:32:47.597Z,20.8
2022-10-05T11:38:24.320Z,20.8
2022-10-05T11:44:04.550Z,20.8
2022-10-05T11:49:46.307Z,20.8
2022-10-05T11:55:47.890Z,20.8
2022-10-05T12:01:26.148Z,20.8
2022-10-05T12:07:08.960Z,20.8
2022-10-05T12:12:47.420Z,20.8
2022-10-05T12:18:08.872Z,20.8
2022-10-05T12:23:32.472Z,20.9
2022-10-05T12:29:09.982Z,20.9
2022-10-05T12:34:47.063Z,21
2022-10-05T12:41:13.227Z,21
2022-10-05T12:46:51.583Z,21
2022-10-05T12:52:35.476Z,21
2022-10-05T12:57:58.395Z,21.1
2022-10-05T13:14:34.675Z,21.2
2022-10-05T13:20:14.631Z,21.2
2022-10-05T13:25:54.148Z,21.3
2022-10-05T13:31:35.022Z,21.2
2022-10-05T13:37:13.433Z,21.3
2022-10-05T13:42:50.936Z,21.3
2022-10-05T13:48:15.284Z,21.3
2022-10-05T13:53:54.094Z,21.3
2022-10-05T13:59:16.178Z,21.4
2022-10-05T14:04:55.145Z,21.4
2022-10-05T14:10:22.935Z,21.4
2022-10-05T14:15:44.429Z,21.4
2022-10-05T14:21:11.267Z,21.4
2022-10-05T14:26:57.424Z,21.4
2022-10-05T14:32:24.035Z,21.5
2022-10-05T14:38:06.438Z,21.5
2022-10-05T14:43:18.395Z,21.5
2022-10-05T14:48:58.750Z,21.6
2022-10-05T14:54:37.288Z,21.6
2022-10-05T15:00:15.316Z,21.6
